createdAt,value
2019-04-22T00:02:03.986Z,12.31
2019-04-22T00:04:42.163Z,12.31
2019-04-22T00:07:22.257Z,12.21
2019-04-22T00:09:54.953Z,12.21
2019-04-22T00:12:27.583Z,12.17
2019-04-22T00:15:06.559Z,12.09
2019-04-22T00:17:45.120Z,12.09
2019-04-22T00:20:11.620Z,12.06
2019-04-22T00:23:00.125Z,11.99
2019-04-22T00:25:27.932Z,11.99
2019-04-22T00:30:22.044Z,11.91
2019-04-22T00:33:08.014Z,11.89
2019-04-22T00:35:41.991Z,11.89
2019-04-22T00:40:45.633Z,11.82
2019-04-22T00:43:13.835Z,11.80
2019-04-22T00:46:01.759Z,11.77
2019-04-22T00:53:56.246Z,11.69
2019-04-22T00:56:22.153Z,11.67
2019-04-22T00:59:14.451Z,11.66
2019-04-22T01:01:37.253Z,11.66
2019-04-22T01:06:58.729Z,11.62
2019-04-22T01:09:31.321Z,11.60
2019-04-22T01:12:00.410Z,11.55
2019-04-22T01:14:28.081Z,11.44
2019-04-22T01:16:54.356Z,11.44
2019-04-22T01:19:32.331Z,11.41
2019-04-22T01:22:13.334Z,11.32
2019-04-22T01:24:57.603Z,11.28
2019-04-22T01:27:22.210Z,11.28
2019-04-22T01:30:07.262Z,11.22
2019-04-22T01:32:31.088Z,11.17
2019-04-22T01:35:09.804Z,11.12
2019-04-22T01:37:43.271Z,11.10
2019-04-22T01:40:21.797Z,11.09
2019-04-22T01:43:14.738Z,11.06
2019-04-22T01:45:40.097Z,11.05
2019-04-22T01:48:26.960Z,11.03
2019-04-22T01:50:59.957Z,10.99
2019-04-22T01:53:42.462Z,10.84
2019-04-22T01:56:13.684Z,10.84
2019-04-22T01:58:34.821Z,10.75
2019-04-22T02:01:18.579Z,10.70
2019-04-22T02:03:46.722Z,10.64
2019-04-22T02:06:39.132Z,10.60
2019-04-22T02:09:04.011Z,10.60
2019-04-22T02:11:56.366Z,10.58
2019-04-22T02:17:14.722Z,10.50
2019-04-22T02:20:00.598Z,10.43
2019-04-22T02:22:29.028Z,10.43
2019-04-22T02:25:18.542Z,10.36
2019-04-22T02:27:52.397Z,10.36
2019-04-22T02:30:46.953Z,10.22
2019-04-22T02:33:55.699Z,10.15
2019-04-22T02:36:15.601Z,10.15
2019-04-22T02:49:11.141Z,10.13
2019-04-22T02:51:37.065Z,10.13
2019-04-22T02:54:29.683Z,10.13
2019-04-22T02:59:34.869Z,10.13
2019-04-22T03:02:35.677Z,10.13
2019-04-22T03:04:57.805Z,10.11
2019-04-22T03:07:20.789Z,10.09
2019-04-22T03:12:34.864Z,10.08
2019-04-22T03:15:30.895Z,10.08
2019-04-22T03:20:56.369Z,10.05
2019-04-22T03:28:51.148Z,9.82
2019-04-22T03:31:54.857Z,9.70
2019-04-22T03:34:42.201Z,9.70
2019-04-22T03:42:05.192Z,9.53
2019-04-22T03:52:05.426Z,9.48
2019-04-22T04:00:03.382Z,9.45
2019-04-22T04:02:24.064Z,9.45
2019-04-22T04:07:40.823Z,9.44
2019-04-22T04:12:38.632Z,9.42
2019-04-22T04:15:07.465Z,9.42
2019-04-22T04:20:24.257Z,9.43
2019-04-22T04:25:29.255Z,9.46
2019-04-22T04:28:26.666Z,9.50
2019-04-22T04:38:42.906Z,9.60
2019-04-22T04:43:46.559Z,9.61
2019-04-22T04:51:33.032Z,9.61
2019-04-22T04:53:58.285Z,9.64
2019-04-22T04:56:32.069Z,9.66
2019-04-22T04:59:13.315Z,9.69
2019-04-22T05:01:23.112Z,9.73
2019-04-22T05:06:46.660Z,9.87
2019-04-22T05:09:14.764Z,9.98
2019-04-22T05:14:28.630Z,10.26
2019-04-22T05:17:18.274Z,10.26
2019-04-22T05:19:37.841Z,10.49
2019-04-22T05:22:18.958Z,10.60
2019-04-22T05:24:44.335Z,10.72
2019-04-22T05:27:34.649Z,10.72
2019-04-22T05:38:03.083Z,11.48
2019-04-22T05:40:37.337Z,11.48
2019-04-22T05:43:16.217Z,11.61
2019-04-22T05:48:23.169Z,11.91
2019-04-22T05:50:54.545Z,12.06
2019-04-22T05:53:32.456Z,12.39
2019-04-22T05:58:59.910Z,12.56
2019-04-22T06:01:52.187Z,12.89
2019-04-22T06:04:11.481Z,12.89
2019-04-22T06:06:35.586Z,13.09
2019-04-22T06:09:10.583Z,13.27
2019-04-22T06:14:00.921Z,13.79
2019-04-22T06:16:40.079Z,13.79
2019-04-22T06:19:08.778Z,13.95
2019-04-22T06:21:40.176Z,14.10
2019-04-22T06:27:04.518Z,14.45
2019-04-22T06:34:34.194Z,14.89
2019-04-22T06:39:41.873Z,15.19
2019-04-22T06:42:13.766Z,15.37
2019-04-22T06:45:15.229Z,15.72
2019-04-22T06:47:14.976Z,15.72
2019-04-22T06:49:58.921Z,15.90
2019-04-22T06:52:22.572Z,16.09
2019-04-22T06:55:16.768Z,16.47
2019-04-22T06:57:43.508Z,16.47
2019-04-22T07:05:51.805Z,17.23
2019-04-22T07:08:45.686Z,17.47
2019-04-22T07:11:04.665Z,17.73
2019-04-22T07:14:00.058Z,18.24
2019-04-22T07:16:30.224Z,18.24
2019-04-22T07:22:01.700Z,18.75
2019-04-22T07:24:28.272Z,19.22
2019-04-22T07:26:36.217Z,19.22
2019-04-22T07:29:30.994Z,19.46
2019-04-22T07:32:00.292Z,19.70
2019-04-22T07:34:33.322Z,19.97
2019-04-22T07:39:56.835Z,20.56
2019-04-22T07:47:53.602Z,20.87
2019-04-22T07:50:49.319Z,21.16
2019-04-22T07:53:08.380Z,21.16
2019-04-22T07:55:39.703Z,21.40
2019-04-22T07:58:16.822Z,21.52
2019-04-22T08:00:40.159Z,21.64
2019-04-22T08:03:11.803Z,21.64
2019-04-22T08:08:16.010Z,21.88
2019-04-22T08:10:43.198Z,21.99
2019-04-22T08:13:11.395Z,22.21
2019-04-22T08:15:43.206Z,22.21
2019-04-22T08:20:40.852Z,22.40
2019-04-22T08:23:09.366Z,22.40
2019-04-22T08:25:42.941Z,22.58
2019-04-22T08:28:17.428Z,22.58
2019-04-22T08:30:47.651Z,22.69
2019-04-22T08:33:16.195Z,22.79
2019-04-22T08:39:07.902Z,22.95
2019-04-22T08:41:08.647Z,23.08
2019-04-22T08:43:48.634Z,23.28
2019-04-22T08:46:05.423Z,23.28
2019-04-22T08:48:57.653Z,23.46
2019-04-22T08:54:24.599Z,23.73
2019-04-22T08:56:43.673Z,23.81
2019-04-22T08:59:25.826Z,23.81
2019-04-22T09:04:42.051Z,23.94
2019-04-22T09:14:49.757Z,24.19
2019-04-22T09:20:32.587Z,24.41
2019-04-22T09:23:03.990Z,24.57
2019-04-22T09:25:31.423Z,24.73
2019-04-22T09:27:57.829Z,24.92
2019-04-22T09:30:58.591Z,25.14
2019-04-22T09:36:16.803Z,25.55
2019-04-22T09:41:14.213Z,26.56
2019-04-22T09:47:05.265Z,27.57
2019-04-22T09:49:44.270Z,27.57
2019-04-22T10:03:16.707Z,29.63
2019-04-22T10:05:50.028Z,29.90
2019-04-22T10:08:40.777Z,30.04
2019-04-22T10:11:05.584Z,30.15
2019-04-22T10:13:53.616Z,30.20
2019-04-22T10:16:26.896Z,30.29
2019-04-22T10:18:52.857Z,30.55
2019-04-22T10:21:24.310Z,30.78
2019-04-22T10:23:53.478Z,30.90
2019-04-22T10:26:22.330Z,31.00
2019-04-22T10:28:52.799Z,31.18
2019-04-22T10:31:19.241Z,31.49
2019-04-22T10:33:58.824Z,31.66
2019-04-22T10:36:09.808Z,31.87
2019-04-22T10:38:37.358Z,32.09
2019-04-22T10:41:05.203Z,32.54
2019-04-22T10:43:33.015Z,32.54
2019-04-22T10:46:01.920Z,33.02
2019-04-22T10:48:32.379Z,33.02
2019-04-22T10:51:06.568Z,33.36
2019-04-22T10:53:35.608Z,33.72
2019-04-22T10:56:07.554Z,34.07
2019-04-22T10:58:35.206Z,34.54
2019-04-22T11:01:03.462Z,34.54
2019-04-22T11:03:31.223Z,35.14
2019-04-22T11:06:03.298Z,35.41
2019-04-22T11:08:44.531Z,35.63
2019-04-22T11:11:16.201Z,35.63
2019-04-22T11:13:35.821Z,35.60
2019-04-22T11:16:07.625Z,35.62
2019-04-22T11:18:35.767Z,35.56
2019-04-22T11:21:03.561Z,35.66
2019-04-22T11:23:32.365Z,35.75
2019-04-22T11:26:02.078Z,35.85
2019-04-22T11:28:29.717Z,35.91
2019-04-22T11:31:10.561Z,36.03
2019-04-22T11:33:42.692Z,36.03
2019-04-22T11:36:13.659Z,35.96
2019-04-22T11:38:48.639Z,36.11
2019-04-22T11:41:10.507Z,36.07
2019-04-22T11:43:41.040Z,36.00
2019-04-22T11:46:09.356Z,36.00
2019-04-22T11:48:38.103Z,36.47
2019-04-22T11:51:06.258Z,36.47
2019-04-22T11:53:38.659Z,36.90
2019-04-22T11:56:06.865Z,37.15
2019-04-22T11:58:35.437Z,37.28
2019-04-22T12:01:04.047Z,37.34
2019-04-22T12:03:32.022Z,37.34
2019-04-22T12:05:59.848Z,37.21
2019-04-22T12:08:31.296Z,37.17
2019-04-22T12:11:03.610Z,37.20
2019-04-22T12:13:28.490Z,37.29
2019-04-22T12:15:56.195Z,37.33
2019-04-22T12:18:24.924Z,37.20
2019-04-22T12:20:53.107Z,37.20
2019-04-22T12:23:21.080Z,37.14
2019-04-22T12:25:57.403Z,37.01
2019-04-22T12:28:19.092Z,36.89
2019-04-22T12:30:47.862Z,36.88
2019-04-22T12:33:17.042Z,36.84
2019-04-22T12:35:44.627Z,36.92
2019-04-22T12:38:13.134Z,36.98
2019-04-22T12:40:51.292Z,36.92
2019-04-22T12:43:14.306Z,36.87
2019-04-22T12:45:42.508Z,36.77
2019-04-22T12:48:10.419Z,36.72
2019-04-22T12:50:41.790Z,36.77
2019-04-22T12:53:10.626Z,36.75
2019-04-22T12:55:37.642Z,36.70
2019-04-22T12:58:05.499Z,36.77
2019-04-22T13:00:34.222Z,36.69
2019-04-22T13:03:05.121Z,36.57
2019-04-22T13:05:31.486Z,36.34
2019-04-22T13:08:00.079Z,36.26
2019-04-22T13:10:40.659Z,36.00
2019-04-22T13:12:58.684Z,35.81
2019-04-22T13:15:26.733Z,35.86
2019-04-22T13:18:05.806Z,35.85
2019-04-22T13:20:26.234Z,35.82
2019-04-22T13:22:54.720Z,36.02
2019-04-22T13:25:24.834Z,35.86
2019-04-22T13:27:53.212Z,35.86
2019-04-22T13:30:26.185Z,35.66
2019-04-22T13:32:58.719Z,35.70
2019-04-22T13:35:31.918Z,35.70
2019-04-22T13:38:01.571Z,35.81
2019-04-22T13:40:35.236Z,35.86
2019-04-22T13:43:07.199Z,35.94
2019-04-22T13:45:36.169Z,35.98
2019-04-22T13:48:28.118Z,35.98
2019-04-22T13:51:18.565Z,36.08
2019-04-22T13:55:57.929Z,36.24
2019-04-22T13:58:18.514Z,36.08
2019-04-22T14:00:34.591Z,35.84
2019-04-22T14:03:39.871Z,34.73
2019-04-22T14:06:09.058Z,34.73
2019-04-22T14:08:38.147Z,34.00
2019-04-22T14:11:17.000Z,33.49
2019-04-22T14:13:37.765Z,33.03
2019-04-22T14:16:09.047Z,32.43
2019-04-22T14:18:37.359Z,31.69
2019-04-22T14:21:05.141Z,31.21
2019-04-22T14:23:32.997Z,31.01
2019-04-22T14:26:01.296Z,30.89
2019-04-22T14:28:30.731Z,30.79
2019-04-22T14:30:58.290Z,30.39
2019-04-22T14:33:30.139Z,30.39
2019-04-22T14:36:02.611Z,30.25
2019-04-22T14:38:30.376Z,30.13
2019-04-22T14:41:02.544Z,29.99
2019-04-22T14:43:59.957Z,29.97
2019-04-22T14:46:33.485Z,29.99
2019-04-22T14:48:57.600Z,29.98
2019-04-22T14:51:27.359Z,30.10
2019-04-22T14:53:56.640Z,30.15
2019-04-22T14:56:06.582Z,30.28
2019-04-22T14:58:35.087Z,30.64
2019-04-22T15:01:08.530Z,31.01
2019-04-22T15:03:42.009Z,31.45
2019-04-22T15:06:10.598Z,31.93
2019-04-22T15:08:39.328Z,32.27
2019-04-22T15:11:08.634Z,32.13
2019-04-22T15:13:36.364Z,31.93
2019-04-22T15:16:26.030Z,31.46
2019-04-22T15:19:17.948Z,31.03
2019-04-22T15:21:45.358Z,30.75
2019-04-22T15:24:29.470Z,30.37
2019-04-22T15:27:04.613Z,30.08
2019-04-22T15:29:33.643Z,30.11
2019-04-22T15:32:01.379Z,30.46
2019-04-22T15:34:30.390Z,30.88
2019-04-22T15:37:04.610Z,31.12
2019-04-22T15:39:34.088Z,31.33
2019-04-22T15:42:12.239Z,31.31
2019-04-22T15:44:35.812Z,31.01
2019-04-22T15:47:05.074Z,30.88
2019-04-22T15:49:35.960Z,30.80
2019-04-22T15:52:02.974Z,30.72
2019-04-22T15:54:34.088Z,30.80
2019-04-22T15:57:02.607Z,31.08
2019-04-22T15:59:50.525Z,31.44
2019-04-22T16:02:02.722Z,31.87
2019-04-22T16:04:32.655Z,32.39
2019-04-22T16:07:01.230Z,32.85
2019-04-22T16:09:29.413Z,33.48
2019-04-22T16:12:09.992Z,33.48
2019-04-22T16:14:34.674Z,33.68
2019-04-22T16:16:56.710Z,33.78
2019-04-22T16:19:25.442Z,33.83
2019-04-22T16:22:03.031Z,33.69
2019-04-22T16:24:42.780Z,32.36
2019-04-22T16:27:20.766Z,30.69
2019-04-22T16:29:49.701Z,29.23
2019-04-22T16:32:17.420Z,28.15
2019-04-22T16:34:46.125Z,27.37
2019-04-22T16:37:14.733Z,26.72
2019-04-22T16:39:48.984Z,26.25
2019-04-22T16:42:31.433Z,25.58
2019-04-22T16:44:49.435Z,25.58
2019-04-22T16:47:19.695Z,25.28
2019-04-22T16:49:49.857Z,24.74
2019-04-22T16:52:25.855Z,24.74
2019-04-22T16:54:54.784Z,24.49
2019-04-22T16:57:28.113Z,24.31
2019-04-22T16:59:58.538Z,24.14
2019-04-22T17:02:56.007Z,24.02
2019-04-22T17:05:43.373Z,23.71
2019-04-22T17:08:14.354Z,23.71
2019-04-22T17:10:42.346Z,23.56
2019-04-22T17:13:17.478Z,23.42
2019-04-22T17:15:41.933Z,23.15
2019-04-22T17:18:11.213Z,23.15
2019-04-22T17:20:40.337Z,23.02
2019-04-22T17:23:09.468Z,22.88
2019-04-22T17:25:38.443Z,22.76
2019-04-22T17:28:11.177Z,22.63
2019-04-22T17:30:39.564Z,22.53
2019-04-22T17:33:08.403Z,22.32
2019-04-22T17:35:36.109Z,22.32
2019-04-22T17:38:12.697Z,22.23
2019-04-22T17:40:52.214Z,22.13
2019-04-22T17:43:44.192Z,21.91
2019-04-22T17:46:06.803Z,21.91
2019-04-22T17:49:06.034Z,21.81
2019-04-22T17:51:56.263Z,21.71
2019-04-22T17:54:12.071Z,21.57
2019-04-22T17:56:37.611Z,21.45
2019-04-22T17:59:18.655Z,21.21
2019-04-22T18:01:46.633Z,21.21
2019-04-22T18:03:57.178Z,21.09
2019-04-22T18:06:49.018Z,20.97
2019-04-22T18:09:14.503Z,20.83
2019-04-22T18:11:48.285Z,20.73
2019-04-22T18:17:43.738Z,20.53
2019-04-22T18:20:22.620Z,20.38
2019-04-22T18:25:48.488Z,19.97
2019-04-22T18:28:18.715Z,19.97
2019-04-22T18:31:04.632Z,19.72
2019-04-22T18:33:28.938Z,19.72
2019-04-22T18:36:16.777Z,19.60
2019-04-22T18:38:52.499Z,19.38
2019-04-22T18:41:34.184Z,19.30
2019-04-22T18:44:09.730Z,19.30
2019-04-22T18:46:36.953Z,19.19
2019-04-22T18:49:21.631Z,19.11
2019-04-22T18:52:17.406Z,18.94
2019-04-22T18:54:56.929Z,18.94
2019-04-22T18:57:41.203Z,18.85
2019-04-22T19:00:16.557Z,18.64
2019-04-22T19:02:55.821Z,18.64
2019-04-22T19:05:55.793Z,18.56
2019-04-22T19:08:29.195Z,18.47
2019-04-22T19:11:02.295Z,18.35
2019-04-22T19:13:49.891Z,18.35
2019-04-22T19:16:14.307Z,18.28
2019-04-22T19:18:35.017Z,18.16
2019-04-22T19:21:07.927Z,18.10
2019-04-22T19:23:43.982Z,18.10
2019-04-22T19:26:08.316Z,17.98
2019-04-22T19:31:24.978Z,17.84
2019-04-22T19:34:12.927Z,17.84
2019-04-22T19:37:03.572Z,17.73
2019-04-22T19:44:55.378Z,17.65
2019-04-22T19:50:24.253Z,17.47
2019-04-22T19:55:49.856Z,17.33
2019-04-22T19:58:20.123Z,17.33
2019-04-22T20:01:15.700Z,16.95
2019-04-22T20:04:12.064Z,16.77
2019-04-22T20:06:47.989Z,16.77
2019-04-22T20:17:29.002Z,16.49
2019-04-22T20:19:57.764Z,16.51
2019-04-22T20:22:28.226Z,16.62
2019-04-22T20:24:43.388Z,16.69
2019-04-22T20:30:46.101Z,16.73
2019-04-22T20:33:25.310Z,16.78
2019-04-22T20:36:14.245Z,16.77
2019-04-22T20:38:49.477Z,16.73
2019-04-22T20:41:36.561Z,16.73
2019-04-22T20:44:16.340Z,16.71
2019-04-22T20:46:44.635Z,16.66
2019-04-22T20:49:11.737Z,16.62
2019-04-22T20:51:54.321Z,16.58
2019-04-22T20:54:29.264Z,16.50
2019-04-22T20:56:55.341Z,16.50
2019-04-22T20:59:29.986Z,16.48
2019-04-22T21:01:58.307Z,16.49
2019-04-22T21:04:41.636Z,16.48
2019-04-22T21:07:34.424Z,16.48
2019-04-22T21:10:19.842Z,16.44
2019-04-22T21:13:06.963Z,16.41
2019-04-22T21:15:45.909Z,16.34
2019-04-22T21:18:27.923Z,16.22
2019-04-22T21:21:02.587Z,16.22
2019-04-22T21:23:23.232Z,16.22
2019-04-22T21:26:13.541Z,16.17
2019-04-22T21:28:47.606Z,16.17
2019-04-22T21:34:50.933Z,16.04
2019-04-22T21:37:20.536Z,15.99
2019-04-22T21:42:57.616Z,15.93
2019-04-22T21:45:16.547Z,15.89
2019-04-22T21:51:01.326Z,15.82
2019-04-22T21:53:32.947Z,15.76
2019-04-22T22:01:38.254Z,15.68
2019-04-22T22:03:55.259Z,15.61
2019-04-22T22:06:19.026Z,15.57
2019-04-22T22:11:27.786Z,15.54
2019-04-22T22:14:04.128Z,15.50
2019-04-22T22:19:24.048Z,15.44
2019-04-22T22:22:28.115Z,15.44
2019-04-22T22:24:45.235Z,15.39
2019-04-22T22:27:26.179Z,15.34
2019-04-22T22:29:50.757Z,15.26
2019-04-22T22:32:12.989Z,15.23
2019-04-22T22:35:03.753Z,15.23
2019-04-22T22:39:56.699Z,15.11
2019-04-22T22:42:38.987Z,15.07
2019-04-22T22:45:13.884Z,15.07
2019-04-22T22:48:15.056Z,15.05
2019-04-22T22:50:42.958Z,15.02
2019-04-22T22:53:21.207Z,14.92
2019-04-22T22:56:07.530Z,14.91
2019-04-22T22:58:34.285Z,14.91
2019-04-22T23:00:56.317Z,14.85
2019-04-22T23:03:46.127Z,14.83
2019-04-22T23:06:20.741Z,14.83
2019-04-22T23:08:51.583Z,14.79
2019-04-22T23:11:52.476Z,14.76
2019-04-22T23:16:41.997Z,14.68
2019-04-22T23:19:21.806Z,14.62
2019-04-22T23:27:55.322Z,14.42
2019-04-22T23:33:27.702Z,14.25
2019-04-22T23:36:12.775Z,14.22
2019-04-22T23:38:50.513Z,14.22
2019-04-22T23:41:46.292Z,14.15
2019-04-22T23:49:42.996Z,14.06
2019-04-22T23:52:19.244Z,13.99
2019-04-22T23:57:58.469Z,13.87
